sensor_id;sensor_type;location;lat;lon;timestamp;P1;durP1;ratioP1;P2;durP2;ratioP2
39078;SDS011;24829;49.208;12.080;2022-08-05T00:02:24;5.20;;;2.05;;
39078;SDS011;24829;49.208;12.080;2022-08-05T00:04:50;4.10;;;1.98;;
39078;SDS011;24829;49.208;12.080;2022-08-05T00:07:15;6.20;;;2.22;;
39078;SDS011;24829;49.208;12.080;2022-08-05T00:09:41;1.80;;;1.52;;
39078;SDS011;24829;49.208;12.080;2022-08-05T00:12:06;4.03;;;1.80;;
39078;SDS011;24829;49.208;12.080;2022-08-05T00:14:32;3.90;;;1.70;;
39078;SDS011;24829;49.208;12.080;2022-08-05T00:16:58;2.40;;;1.95;;
39078;SDS011;24829;49.208;12.080;2022-08-05T00:19:23;3.55;;;1.77;;
39078;SDS011;24829;49.208;12.080;2022-08-05T00:21:49;2.70;;;2.10;;
39078;SDS011;24829;49.208;12.080;2022-08-05T00:24:15;2.97;;;1.95;;
39078;SDS011;24829;49.208;12.080;2022-08-05T00:26:41;6.60;;;1.92;;
39078;SDS011;24829;49.208;12.080;2022-08-05T00:29:06;3.13;;;2.22;;
39078;SDS011;24829;49.208;12.080;2022-08-05T00:31:32;3.92;;;1.90;;
39078;SDS011;24829;49.208;12.080;2022-08-05T00:33:57;3.83;;;1.83;;
39078;SDS011;24829;49.208;12.080;2022-08-05T00:36:23;4.70;;;2.38;;
39078;SDS011;24829;49.208;12.080;2022-08-05T00:38:49;4.78;;;2.05;;
39078;SDS011;24829;49.208;12.080;2022-08-05T00:41:25;3.97;;;2.33;;
39078;SDS011;24829;49.208;12.080;2022-08-05T00:43:55;2.88;;;1.85;;
39078;SDS011;24829;49.208;12.080;2022-08-05T00:46:21;3.40;;;2.35;;
39078;SDS011;24829;49.208;12.080;2022-08-05T00:48:47;4.22;;;2.10;;
39078;SDS011;24829;49.208;12.080;2022-08-05T00:51:13;8.68;;;2.13;;
39078;SDS011;24829;49.208;12.080;2022-08-05T00:53:39;3.38;;;2.08;;
39078;SDS011;24829;49.208;12.080;2022-08-05T00:56:04;4.75;;;2.15;;
39078;SDS011;24829;49.208;12.080;2022-08-05T00:58:31;5.78;;;2.22;;
39078;SDS011;24829;49.208;12.080;2022-08-05T01:00:57;3.80;;;2.00;;
39078;SDS011;24829;49.208;12.080;2022-08-05T01:03:22;2.58;;;2.00;;
39078;SDS011;24829;49.208;12.080;2022-08-05T01:05:50;3.88;;;2.40;;
39078;SDS011;24829;49.208;12.080;2022-08-05T01:08:16;3.15;;;2.40;;
39078;SDS011;24829;49.208;12.080;2022-08-05T01:10:43;3.05;;;1.60;;
39078;SDS011;24829;49.208;12.080;2022-08-05T01:13:20;6.20;;;2.13;;
39078;SDS011;24829;49.208;12.080;2022-08-05T01:15:57;5.38;;;2.38;;
39078;SDS011;24829;49.208;12.080;2022-08-05T01:18:28;6.18;;;3.00;;
39078;SDS011;24829;49.208;12.080;2022-08-05T01:26:47;3.33;;;2.60;;
39078;SDS011;24829;49.208;12.080;2022-08-05T01:29:31;5.45;;;2.67;;
39078;SDS011;24829;49.208;12.080;2022-08-05T01:31:59;3.65;;;3.00;;
39078;SDS011;24829;49.208;12.080;2022-08-05T01:37:03;3.75;;;2.95;;
39078;SDS011;24829;49.208;12.080;2022-08-05T01:39:33;4.50;;;3.58;;
39078;SDS011;24829;49.208;12.080;2022-08-05T01:42:01;5.07;;;3.42;;
39078;SDS011;24829;49.208;12.080;2022-08-05T01:44:28;6.38;;;2.75;;
39078;SDS011;24829;49.208;12.080;2022-08-05T01:46:56;5.13;;;2.72;;
39078;SDS011;24829;49.208;12.080;2022-08-05T01:49:22;6.22;;;3.25;;
39078;SDS011;24829;49.208;12.080;2022-08-05T01:51:55;5.35;;;2.45;;
39078;SDS011;24829;49.208;12.080;2022-08-05T01:56:50;4.82;;;2.75;;
39078;SDS011;24829;49.208;12.080;2022-08-05T01:59:19;4.43;;;2.88;;
39078;SDS011;24829;49.208;12.080;2022-08-05T02:01:46;8.65;;;3.28;;
39078;SDS011;24829;49.208;12.080;2022-08-05T02:04:15;7.18;;;3.13;;
39078;SDS011;24829;49.208;12.080;2022-08-05T02:06:43;4.47;;;3.05;;
39078;SDS011;24829;49.208;12.080;2022-08-05T02:09:09;4.63;;;3.15;;
39078;SDS011;24829;49.208;12.080;2022-08-05T02:11:42;4.70;;;3.78;;
39078;SDS011;24829;49.208;12.080;2022-08-05T02:14:16;3.10;;;2.80;;
39078;SDS011;24829;49.208;12.080;2022-08-05T02:16:51;6.50;;;3.47;;
39078;SDS011;24829;49.208;12.080;2022-08-05T02:19:23;4.70;;;3.25;;
39078;SDS011;24829;49.208;12.080;2022-08-05T02:22:18;6.05;;;2.97;;
39078;SDS011;24829;49.208;12.080;2022-08-05T02:25:00;5.00;;;3.05;;
39078;SDS011;24829;49.208;12.080;2022-08-05T02:27:33;7.30;;;3.35;;
39078;SDS011;24829;49.208;12.080;2022-08-05T02:30:02;6.65;;;3.90;;
39078;SDS011;24829;49.208;12.080;2022-08-05T02:32:28;9.07;;;3.10;;
39078;SDS011;24829;49.208;12.080;2022-08-05T02:35:00;5.30;;;3.17;;
39078;SDS011;24829;49.208;12.080;2022-08-05T02:37:29;6.40;;;3.38;;
39078;SDS011;24829;49.208;12.080;2022-08-05T02:39:57;5.68;;;3.30;;
39078;SDS011;24829;49.208;12.080;2022-08-05T02:42:26;7.60;;;4.03;;
39078;SDS011;24829;49.208;12.080;2022-08-05T02:44:52;8.57;;;3.50;;
39078;SDS011;24829;49.208;12.080;2022-08-05T02:47:19;3.47;;;2.92;;
39078;SDS011;24829;49.208;12.080;2022-08-05T02:49:46;5.97;;;3.17;;
39078;SDS011;24829;49.208;12.080;2022-08-05T02:52:14;4.15;;;3.22;;
39078;SDS011;24829;49.208;12.080;2022-08-05T02:54:42;8.80;;;3.40;;
39078;SDS011;24829;49.208;12.080;2022-08-05T02:57:10;6.72;;;3.45;;
39078;SDS011;24829;49.208;12.080;2022-08-05T02:59:41;5.75;;;3.65;;
39078;SDS011;24829;49.208;12.080;2022-08-05T03:02:08;9.63;;;4.03;;
39078;SDS011;24829;49.208;12.080;2022-08-05T03:04:35;3.70;;;2.97;;
39078;SDS011;24829;49.208;12.080;2022-08-05T03:07:02;4.10;;;3.53;;
39078;SDS011;24829;49.208;12.080;2022-08-05T03:09:28;5.72;;;3.60;;
39078;SDS011;24829;49.208;12.080;2022-08-05T03:11:54;5.20;;;3.65;;
39078;SDS011;24829;49.208;12.080;2022-08-05T03:14:19;3.80;;;2.85;;
39078;SDS011;24829;49.208;12.080;2022-08-05T03:16:45;7.05;;;2.88;;
39078;SDS011;24829;49.208;12.080;2022-08-05T03:19:11;6.00;;;3.53;;
39078;SDS011;24829;49.208;12.080;2022-08-05T03:21:36;8.52;;;3.63;;
39078;SDS011;24829;49.208;12.080;2022-08-05T03:24:02;5.28;;;3.38;;
39078;SDS011;24829;49.208;12.080;2022-08-05T03:26:28;7.50;;;3.53;;
39078;SDS011;24829;49.208;12.080;2022-08-05T03:28:54;6.13;;;4.07;;
39078;SDS011;24829;49.208;12.080;2022-08-05T03:31:20;4.53;;;4.05;;
39078;SDS011;24829;49.208;12.080;2022-08-05T03:33:46;4.57;;;4.15;;
39078;SDS011;24829;49.208;12.080;2022-08-05T03:36:12;4.78;;;3.22;;
39078;SDS011;24829;49.208;12.080;2022-08-05T03:38:40;5.65;;;3.85;;
39078;SDS011;24829;49.208;12.080;2022-08-05T03:41:06;5.30;;;3.70;;
39078;SDS011;24829;49.208;12.080;2022-08-05T03:43:33;4.93;;;3.78;;
39078;SDS011;24829;49.208;12.080;2022-08-05T03:45:58;6.53;;;3.40;;
39078;SDS011;24829;49.208;12.080;2022-08-05T03:48:25;4.13;;;3.40;;
39078;SDS011;24829;49.208;12.080;2022-08-05T03:50:53;8.32;;;5.15;;
39078;SDS011;24829;49.208;12.080;2022-08-05T03:53:58;15.48;;;5.13;;
39078;SDS011;24829;49.208;12.080;2022-08-05T03:56:36;4.20;;;3.17;;
39078;SDS011;24829;49.208;12.080;2022-08-05T03:59:08;9.18;;;4.20;;
39078;SDS011;24829;49.208;12.080;2022-08-05T04:01:38;7.72;;;4.30;;
39078;SDS011;24829;49.208;12.080;2022-08-05T04:04:08;9.53;;;3.97;;
39078;SDS011;24829;49.208;12.080;2022-08-05T04:06:36;8.45;;;4.30;;
39078;SDS011;24829;49.208;12.080;2022-08-05T04:09:03;8.02;;;3.53;;
39078;SDS011;24829;49.208;12.080;2022-08-05T04:11:35;6.70;;;3.75;;
39078;SDS011;24829;49.208;12.080;2022-08-05T04:14:01;4.10;;;3.70;;
39078;SDS011;24829;49.208;12.080;2022-08-05T04:16:28;7.00;;;4.05;;
39078;SDS011;24829;49.208;12.080;2022-08-05T04:18:54;4.63;;;3.55;;
39078;SDS011;24829;49.208;12.080;2022-08-05T04:21:19;9.90;;;4.50;;
39078;SDS011;24829;49.208;12.080;2022-08-05T04:23:45;11.25;;;4.00;;
39078;SDS011;24829;49.208;12.080;2022-08-05T04:26:14;8.38;;;3.83;;
39078;SDS011;24829;49.208;12.080;2022-08-05T04:28:39;14.45;;;5.50;;
39078;SDS011;24829;49.208;12.080;2022-08-05T04:31:05;11.35;;;4.55;;
39078;SDS011;24829;49.208;12.080;2022-08-05T04:33:31;6.05;;;3.92;;
39078;SDS011;24829;49.208;12.080;2022-08-05T04:35:56;8.38;;;4.22;;
39078;SDS011;24829;49.208;12.080;2022-08-05T04:38:22;9.55;;;4.38;;
39078;SDS011;24829;49.208;12.080;2022-08-05T04:40:47;8.10;;;3.83;;
39078;SDS011;24829;49.208;12.080;2022-08-05T04:43:13;9.02;;;4.40;;
39078;SDS011;24829;49.208;12.080;2022-08-05T04:45:38;6.80;;;3.97;;
39078;SDS011;24829;49.208;12.080;2022-08-05T04:48:08;10.15;;;3.47;;
39078;SDS011;24829;49.208;12.080;2022-08-05T04:50:45;7.88;;;4.20;;
39078;SDS011;24829;49.208;12.080;2022-08-05T04:53:12;7.65;;;3.70;;
39078;SDS011;24829;49.208;12.080;2022-08-05T04:55:42;10.93;;;4.45;;
39078;SDS011;24829;49.208;12.080;2022-08-05T04:58:09;10.18;;;4.18;;
39078;SDS011;24829;49.208;12.080;2022-08-05T05:00:39;8.30;;;3.90;;
39078;SDS011;24829;49.208;12.080;2022-08-05T05:03:10;10.85;;;4.40;;
39078;SDS011;24829;49.208;12.080;2022-08-05T05:05:36;11.18;;;4.55;;
39078;SDS011;24829;49.208;12.080;2022-08-05T05:08:03;10.32;;;4.07;;
39078;SDS011;24829;49.208;12.080;2022-08-05T05:10:32;10.02;;;4.13;;
39078;SDS011;24829;49.208;12.080;2022-08-05T05:13:01;11.85;;;3.42;;
39078;SDS011;24829;49.208;12.080;2022-08-05T05:15:27;10.13;;;4.10;;
39078;SDS011;24829;49.208;12.080;2022-08-05T05:17:52;15.05;;;4.18;;
39078;SDS011;24829;49.208;12.080;2022-08-05T05:20:18;12.50;;;4.55;;
39078;SDS011;24829;49.208;12.080;2022-08-05T05:22:44;15.65;;;3.90;;
39078;SDS011;24829;49.208;12.080;2022-08-05T05:25:09;4.97;;;3.75;;
39078;SDS011;24829;49.208;12.080;2022-08-05T05:27:36;7.68;;;4.15;;
39078;SDS011;24829;49.208;12.080;2022-08-05T05:30:04;8.45;;;3.78;;
39078;SDS011;24829;49.208;12.080;2022-08-05T05:32:30;7.15;;;3.50;;
39078;SDS011;24829;49.208;12.080;2022-08-05T05:34:56;11.70;;;3.70;;
39078;SDS011;24829;49.208;12.080;2022-08-05T05:37:25;10.80;;;3.25;;
39078;SDS011;24829;49.208;12.080;2022-08-05T05:39:50;4.50;;;3.22;;
39078;SDS011;24829;49.208;12.080;2022-08-05T05:42:16;4.38;;;3.47;;
39078;SDS011;24829;49.208;12.080;2022-08-05T05:44:41;8.43;;;3.47;;
39078;SDS011;24829;49.208;12.080;2022-08-05T05:47:07;10.10;;;4.43;;
39078;SDS011;24829;49.208;12.080;2022-08-05T05:49:32;7.30;;;3.78;;
39078;SDS011;24829;49.208;12.080;2022-08-05T05:51:58;8.48;;;3.97;;
39078;SDS011;24829;49.208;12.080;2022-08-05T05:54:24;8.55;;;4.18;;
39078;SDS011;24829;49.208;12.080;2022-08-05T05:56:50;5.35;;;3.60;;
39078;SDS011;24829;49.208;12.080;2022-08-05T05:59:15;8.63;;;3.13;;
39078;SDS011;24829;49.208;12.080;2022-08-05T06:01:41;6.50;;;3.30;;
39078;SDS011;24829;49.208;12.080;2022-08-05T06:04:11;5.10;;;3.10;;
39078;SDS011;24829;49.208;12.080;2022-08-05T06:06:41;7.47;;;3.20;;
39078;SDS011;24829;49.208;12.080;2022-08-05T06:09:08;4.55;;;2.95;;
39078;SDS011;24829;49.208;12.080;2022-08-05T06:11:38;5.95;;;2.80;;
39078;SDS011;24829;49.208;12.080;2022-08-05T06:14:03;5.20;;;2.60;;
39078;SDS011;24829;49.208;12.080;2022-08-05T06:16:29;10.80;;;3.30;;
39078;SDS011;24829;49.208;12.080;2022-08-05T06:18:58;8.73;;;2.90;;
39078;SDS011;24829;49.208;12.080;2022-08-05T06:21:24;11.88;;;3.20;;
39078;SDS011;24829;49.208;12.080;2022-08-05T06:23:49;9.82;;;3.33;;
39078;SDS011;24829;49.208;12.080;2022-08-05T06:26:15;8.02;;;3.03;;
39078;SDS011;24829;49.208;12.080;2022-08-05T06:28:42;6.35;;;3.10;;
39078;SDS011;24829;49.208;12.080;2022-08-05T06:31:07;5.20;;;2.80;;
39078;SDS011;24829;49.208;12.080;2022-08-05T06:33:36;4.57;;;2.78;;
39078;SDS011;24829;49.208;12.080;2022-08-05T06:36:01;3.88;;;2.72;;
39078;SDS011;24829;49.208;12.080;2022-08-05T06:38:27;5.88;;;2.67;;
39078;SDS011;24829;49.208;12.080;2022-08-05T06:40:55;3.38;;;2.47;;
39078;SDS011;24829;49.208;12.080;2022-08-05T06:43:21;6.65;;;3.20;;
39078;SDS011;24829;49.208;12.080;2022-08-05T06:45:46;4.65;;;2.72;;
39078;SDS011;24829;49.208;12.080;2022-08-05T06:48:12;6.32;;;2.72;;
39078;SDS011;24829;49.208;12.080;2022-08-05T06:50:37;8.65;;;2.55;;
39078;SDS011;24829;49.208;12.080;2022-08-05T06:53:03;5.80;;;2.63;;
39078;SDS011;24829;49.208;12.080;2022-08-05T06:55:29;4.88;;;3.22;;
39078;SDS011;24829;49.208;12.080;2022-08-05T06:57:54;6.65;;;3.00;;
39078;SDS011;24829;49.208;12.080;2022-08-05T07:00:20;10.35;;;2.83;;
39078;SDS011;24829;49.208;12.080;2022-08-05T07:02:46;9.15;;;3.10;;
39078;SDS011;24829;49.208;12.080;2022-08-05T07:05:11;5.07;;;2.80;;
39078;SDS011;24829;49.208;12.080;2022-08-05T07:07:38;6.10;;;2.70;;
39078;SDS011;24829;49.208;12.080;2022-08-05T07:10:04;9.35;;;2.65;;
39078;SDS011;24829;49.208;12.080;2022-08-05T07:12:31;8.32;;;2.78;;
39078;SDS011;24829;49.208;12.080;2022-08-05T07:15:15;7.97;;;3.30;;
39078;SDS011;24829;49.208;12.080;2022-08-05T07:17:59;9.85;;;2.72;;
39078;SDS011;24829;49.208;12.080;2022-08-05T07:20:25;3.92;;;2.45;;
39078;SDS011;24829;49.208;12.080;2022-08-05T07:22:51;12.95;;;2.97;;
39078;SDS011;24829;49.208;12.080;2022-08-05T07:25:16;3.67;;;2.70;;
39078;SDS011;24829;49.208;12.080;2022-08-05T07:27:42;10.85;;;3.67;;
39078;SDS011;24829;49.208;12.080;2022-08-05T07:30:10;6.57;;;2.45;;
39078;SDS011;24829;49.208;12.080;2022-08-05T07:32:36;5.60;;;3.03;;
39078;SDS011;24829;49.208;12.080;2022-08-05T07:35:09;5.65;;;2.70;;
39078;SDS011;24829;49.208;12.080;2022-08-05T07:37:36;6.18;;;2.88;;
39078;SDS011;24829;49.208;12.080;2022-08-05T07:40:03;6.47;;;2.92;;
39078;SDS011;24829;49.208;12.080;2022-08-05T07:42:29;10.30;;;3.05;;
39078;SDS011;24829;49.208;12.080;2022-08-05T07:44:58;8.00;;;2.80;;
39078;SDS011;24829;49.208;12.080;2022-08-05T07:47:24;5.25;;;2.60;;
39078;SDS011;24829;49.208;12.080;2022-08-05T07:49:49;6.75;;;2.65;;
39078;SDS011;24829;49.208;12.080;2022-08-05T07:52:17;3.40;;;2.20;;
39078;SDS011;24829;49.208;12.080;2022-08-05T07:54:43;4.28;;;2.70;;
39078;SDS011;24829;49.208;12.080;2022-08-05T07:57:08;4.68;;;2.15;;
39078;SDS011;24829;49.208;12.080;2022-08-05T07:59:34;9.70;;;2.83;;
39078;SDS011;24829;49.208;12.080;2022-08-05T08:02:00;3.85;;;2.53;;
39078;SDS011;24829;49.208;12.080;2022-08-05T08:04:29;3.13;;;2.22;;
39078;SDS011;24829;49.208;12.080;2022-08-05T08:06:55;5.88;;;3.20;;
39078;SDS011;24829;49.208;12.080;2022-08-05T08:09:23;7.22;;;2.83;;
39078;SDS011;24829;49.208;12.080;2022-08-05T08:11:49;3.15;;;2.35;;
39078;SDS011;24829;49.208;12.080;2022-08-05T08:14:14;4.57;;;2.60;;
39078;SDS011;24829;49.208;12.080;2022-08-05T08:16:40;4.85;;;2.45;;
39078;SDS011;24829;49.208;12.080;2022-08-05T08:19:05;4.40;;;2.58;;
39078;SDS011;24829;49.208;12.080;2022-08-05T08:21:32;5.05;;;2.72;;
39078;SDS011;24829;49.208;12.080;2022-08-05T08:23:58;3.33;;;1.85;;
39078;SDS011;24829;49.208;12.080;2022-08-05T08:26:23;6.63;;;2.30;;
39078;SDS011;24829;49.208;12.080;2022-08-05T08:28:49;5.25;;;2.28;;
39078;SDS011;24829;49.208;12.080;2022-08-05T08:31:15;6.25;;;2.80;;
39078;SDS011;24829;49.208;12.080;2022-08-05T08:33:42;2.50;;;1.77;;
39078;SDS011;24829;49.208;12.080;2022-08-05T08:36:07;4.80;;;1.95;;
39078;SDS011;24829;49.208;12.080;2022-08-05T08:38:36;3.83;;;2.03;;
39078;SDS011;24829;49.208;12.080;2022-08-05T08:41:03;5.80;;;1.85;;
39078;SDS011;24829;49.208;12.080;2022-08-05T08:43:32;2.83;;;1.80;;
39078;SDS011;24829;49.208;12.080;2022-08-05T08:46:00;5.82;;;1.92;;
39078;SDS011;24829;49.208;12.080;2022-08-05T08:48:28;2.00;;;1.77;;
39078;SDS011;24829;49.208;12.080;2022-08-05T08:50:58;5.80;;;2.22;;
39078;SDS011;24829;49.208;12.080;2022-08-05T08:53:24;3.65;;;2.17;;
39078;SDS011;24829;49.208;12.080;2022-08-05T08:55:52;2.60;;;2.40;;
39078;SDS011;24829;49.208;12.080;2022-08-05T08:58:18;3.63;;;2.55;;
39078;SDS011;24829;49.208;12.080;2022-08-05T09:00:44;3.60;;;2.13;;
39078;SDS011;24829;49.208;12.080;2022-08-05T09:03:10;3.92;;;2.17;;
39078;SDS011;24829;49.208;12.080;2022-08-05T09:05:39;5.43;;;2.35;;
39078;SDS011;24829;49.208;12.080;2022-08-05T09:08:05;5.13;;;2.47;;
39078;SDS011;24829;49.208;12.080;2022-08-05T09:10:30;4.15;;;2.25;;
39078;SDS011;24829;49.208;12.080;2022-08-05T09:12:59;4.60;;;2.40;;
39078;SDS011;24829;49.208;12.080;2022-08-05T09:15:25;3.97;;;2.60;;
39078;SDS011;24829;49.208;12.080;2022-08-05T09:17:50;4.47;;;2.20;;
39078;SDS011;24829;49.208;12.080;2022-08-05T09:20:16;3.50;;;2.30;;
39078;SDS011;24829;49.208;12.080;2022-08-05T09:25:28;2.58;;;2.15;;
39078;SDS011;24829;49.208;12.080;2022-08-05T09:27:54;2.90;;;2.13;;
39078;SDS011;24829;49.208;12.080;2022-08-05T09:30:22;5.10;;;2.40;;
39078;SDS011;24829;49.208;12.080;2022-08-05T09:32:47;5.13;;;2.00;;
39078;SDS011;24829;49.208;12.080;2022-08-05T09:35:14;3.13;;;1.98;;
39078;SDS011;24829;49.208;12.080;2022-08-05T09:37:50;5.97;;;1.90;;
39078;SDS011;24829;49.208;12.080;2022-08-05T09:40:30;3.42;;;1.95;;
39078;SDS011;24829;49.208;12.080;2022-08-05T09:43:08;5.13;;;1.90;;
39078;SDS011;24829;49.208;12.080;2022-08-05T09:45:59;2.88;;;1.33;;
39078;SDS011;24829;49.208;12.080;2022-08-05T09:50:58;1.95;;;1.75;;
39078;SDS011;24829;49.208;12.080;2022-08-05T09:53:26;5.63;;;1.83;;
39078;SDS011;24829;49.208;12.080;2022-08-05T09:55:56;1.90;;;1.52;;
39078;SDS011;24829;49.208;12.080;2022-08-05T10:00:51;2.95;;;1.52;;
39078;SDS011;24829;49.208;12.080;2022-08-05T10:03:18;3.58;;;2.22;;
39078;SDS011;24829;49.208;12.080;2022-08-05T10:05:44;4.40;;;2.00;;
39078;SDS011;24829;49.208;12.080;2022-08-05T10:08:10;4.35;;;1.80;;
39078;SDS011;24829;49.208;12.080;2022-08-05T10:10:46;5.65;;;1.77;;
39078;SDS011;24829;49.208;12.080;2022-08-05T10:13:25;3.60;;;2.38;;
39078;SDS011;24829;49.208;12.080;2022-08-05T10:15:56;7.75;;;2.05;;
39078;SDS011;24829;49.208;12.080;2022-08-05T10:18:22;3.65;;;1.60;;
39078;SDS011;24829;49.208;12.080;2022-08-05T10:20:52;2.75;;;1.50;;
39078;SDS011;24829;49.208;12.080;2022-08-05T10:23:34;3.40;;;1.27;;
39078;SDS011;24829;49.208;12.080;2022-08-05T10:26:06;3.67;;;1.35;;
39078;SDS011;24829;49.208;12.080;2022-08-05T10:28:34;1.13;;;1.02;;
39078;SDS011;24829;49.208;12.080;2022-08-05T10:31:00;4.88;;;1.33;;
39078;SDS011;24829;49.208;12.080;2022-08-05T10:33:28;3.05;;;1.35;;
39078;SDS011;24829;49.208;12.080;2022-08-05T10:35:55;5.82;;;4.38;;
39078;SDS011;24829;49.208;12.080;2022-08-05T10:38:24;11.98;;;5.55;;
39078;SDS011;24829;49.208;12.080;2022-08-05T10:46:16;6.22;;;3.92;;
39078;SDS011;24829;49.208;12.080;2022-08-05T10:48:43;8.77;;;5.25;;
39078;SDS011;24829;49.208;12.080;2022-08-05T10:51:12;3.67;;;2.20;;
39078;SDS011;24829;49.208;12.080;2022-08-05T10:56:07;4.43;;;1.40;;
39078;SDS011;24829;49.208;12.080;2022-08-05T10:58:37;2.53;;;1.23;;
39078;SDS011;24829;49.208;12.080;2022-08-05T11:01:38;2.83;;;1.60;;
39078;SDS011;24829;49.208;12.080;2022-08-05T11:09:22;2.55;;;1.40;;
39078;SDS011;24829;49.208;12.080;2022-08-05T11:11:50;4.35;;;1.20;;
39078;SDS011;24829;49.208;12.080;2022-08-05T11:20:01;2.33;;;1.17;;
39078;SDS011;24829;49.208;12.080;2022-08-05T11:22:49;2.50;;;1.10;;
39078;SDS011;24829;49.208;12.080;2022-08-05T11:25:25;2.35;;;1.00;;
39078;SDS011;24829;49.208;12.080;2022-08-05T11:27:51;2.90;;;1.20;;
39078;SDS011;24829;49.208;12.080;2022-08-05T11:30:17;2.83;;;1.42;;
39078;SDS011;24829;49.208;12.080;2022-08-05T11:32:43;1.95;;;1.10;;
39078;SDS011;24829;49.208;12.080;2022-08-05T11:35:08;3.85;;;1.38;;
39078;SDS011;24829;49.208;12.080;2022-08-05T11:38:13;3.40;;;1.17;;
39078;SDS011;24829;49.208;12.080;2022-08-05T11:40:57;2.78;;;1.40;;
39078;SDS011;24829;49.208;12.080;2022-08-05T11:43:23;2.13;;;1.33;;
39078;SDS011;24829;49.208;12.080;2022-08-05T11:45:48;5.00;;;1.40;;
39078;SDS011;24829;49.208;12.080;2022-08-05T11:48:14;4.93;;;1.67;;
39078;SDS011;24829;49.208;12.080;2022-08-05T11:50:40;2.60;;;1.20;;
39078;SDS011;24829;49.208;12.080;2022-08-05T11:53:06;2.65;;;1.15;;
39078;SDS011;24829;49.208;12.080;2022-08-05T11:55:32;6.68;;;1.20;;
39078;SDS011;24829;49.208;12.080;2022-08-05T11:57:58;3.20;;;1.30;;
39078;SDS011;24829;49.208;12.080;2022-08-05T12:00:24;1.77;;;1.30;;
39078;SDS011;24829;49.208;12.080;2022-08-05T12:02:51;3.72;;;1.30;;
39078;SDS011;24829;49.208;12.080;2022-08-05T12:05:23;2.33;;;1.08;;
39078;SDS011;24829;49.208;12.080;2022-08-05T12:07:51;2.03;;;1.10;;
39078;SDS011;24829;49.208;12.080;2022-08-05T12:10:17;1.70;;;1.23;;
39078;SDS011;24829;49.208;12.080;2022-08-05T12:12:45;4.50;;;1.00;;
39078;SDS011;24829;49.208;12.080;2022-08-05T12:15:20;3.17;;;1.15;;
39078;SDS011;24829;49.208;12.080;2022-08-05T12:17:46;3.75;;;1.02;;
39078;SDS011;24829;49.208;12.080;2022-08-05T12:20:11;1.67;;;1.10;;
39078;SDS011;24829;49.208;12.080;2022-08-05T12:22:37;3.95;;;1.10;;
39078;SDS011;24829;49.208;12.080;2022-08-05T12:25:03;2.83;;;1.20;;
39078;SDS011;24829;49.208;12.080;2022-08-05T12:27:30;3.47;;;1.70;;
39078;SDS011;24829;49.208;12.080;2022-08-05T12:30:03;1.55;;;1.08;;
39078;SDS011;24829;49.208;12.080;2022-08-05T12:32:31;1.35;;;1.00;;
39078;SDS011;24829;49.208;12.080;2022-08-05T12:34:59;1.83;;;1.10;;
39078;SDS011;24829;49.208;12.080;2022-08-05T12:37:26;3.92;;;1.10;;
39078;SDS011;24829;49.208;12.080;2022-08-05T12:39:51;3.15;;;1.20;;
39078;SDS011;24829;49.208;12.080;2022-08-05T12:42:18;2.78;;;1.10;;
39078;SDS011;24829;49.208;12.080;2022-08-05T12:44:45;5.18;;;1.27;;
39078;SDS011;24829;49.208;12.080;2022-08-05T12:47:11;2.63;;;1.13;;
39078;SDS011;24829;49.208;12.080;2022-08-05T12:49:45;2.58;;;1.33;;
39078;SDS011;24829;49.208;12.080;2022-08-05T12:52:15;3.15;;;1.27;;
39078;SDS011;24829;49.208;12.080;2022-08-05T12:54:43;3.67;;;1.05;;
39078;SDS011;24829;49.208;12.080;2022-08-05T12:57:11;1.67;;;0.93;;
39078;SDS011;24829;49.208;12.080;2022-08-05T12:59:53;1.73;;;1.08;;
39078;SDS011;24829;49.208;12.080;2022-08-05T13:02:23;3.58;;;1.13;;
39078;SDS011;24829;49.208;12.080;2022-08-05T13:04:50;1.50;;;1.00;;
39078;SDS011;24829;49.208;12.080;2022-08-05T13:07:21;5.65;;;1.02;;
39078;SDS011;24829;49.208;12.080;2022-08-05T13:09:52;1.75;;;1.20;;
39078;SDS011;24829;49.208;12.080;2022-08-05T13:12:21;1.10;;;1.00;;
39078;SDS011;24829;49.208;12.080;2022-08-05T13:14:57;2.50;;;1.10;;
39078;SDS011;24829;49.208;12.080;2022-08-05T13:17:26;1.95;;;1.00;;
39078;SDS011;24829;49.208;12.080;2022-08-05T13:20:09;2.88;;;1.40;;
39078;SDS011;24829;49.208;12.080;2022-08-05T13:22:48;4.00;;;1.20;;
39078;SDS011;24829;49.208;12.080;2022-08-05T13:25:16;3.75;;;1.25;;
39078;SDS011;24829;49.208;12.080;2022-08-05T13:27:47;4.55;;;1.42;;
39078;SDS011;24829;49.208;12.080;2022-08-05T13:30:15;4.45;;;1.23;;
39078;SDS011;24829;49.208;12.080;2022-08-05T13:32:43;1.45;;;1.08;;
39078;SDS011;24829;49.208;12.080;2022-08-05T13:35:13;4.07;;;1.33;;
39078;SDS011;24829;49.208;12.080;2022-08-05T13:37:39;3.33;;;1.17;;
39078;SDS011;24829;49.208;12.080;2022-08-05T13:40:05;1.88;;;1.13;;
39078;SDS011;24829;49.208;12.080;2022-08-05T13:42:32;5.97;;;1.35;;
39078;SDS011;24829;49.208;12.080;2022-08-05T13:44:57;1.48;;;1.20;;
39078;SDS011;24829;49.208;12.080;2022-08-05T13:47:23;2.63;;;1.00;;
39078;SDS011;24829;49.208;12.080;2022-08-05T13:49:49;2.92;;;1.20;;
39078;SDS011;24829;49.208;12.080;2022-08-05T13:52:23;5.00;;;1.80;;
39078;SDS011;24829;49.208;12.080;2022-08-05T13:54:53;1.85;;;1.23;;
39078;SDS011;24829;49.208;12.080;2022-08-05T13:57:19;5.20;;;1.30;;
39078;SDS011;24829;49.208;12.080;2022-08-05T13:59:45;2.35;;;1.27;;
39078;SDS011;24829;49.208;12.080;2022-08-05T14:02:11;1.92;;;1.13;;
39078;SDS011;24829;49.208;12.080;2022-08-05T14:04:40;4.70;;;1.55;;
39078;SDS011;24829;49.208;12.080;2022-08-05T14:07:43;1.73;;;1.27;;
39078;SDS011;24829;49.208;12.080;2022-08-05T14:10:11;3.13;;;1.20;;
39078;SDS011;24829;49.208;12.080;2022-08-05T14:12:41;3.70;;;1.27;;
39078;SDS011;24829;49.208;12.080;2022-08-05T14:15:07;7.88;;;1.65;;
39078;SDS011;24829;49.208;12.080;2022-08-05T14:17:33;2.28;;;1.00;;
39078;SDS011;24829;49.208;12.080;2022-08-05T14:20:00;4.50;;;1.50;;
39078;SDS011;24829;49.208;12.080;2022-08-05T14:22:26;5.15;;;1.33;;
39078;SDS011;24829;49.208;12.080;2022-08-05T14:24:51;23.23;;;3.17;;
39078;SDS011;24829;49.208;12.080;2022-08-05T14:27:17;4.90;;;1.23;;
39078;SDS011;24829;49.208;12.080;2022-08-05T14:29:42;2.25;;;1.20;;
39078;SDS011;24829;49.208;12.080;2022-08-05T14:32:08;3.97;;;1.10;;
39078;SDS011;24829;49.208;12.080;2022-08-05T14:34:34;2.30;;;1.20;;
39078;SDS011;24829;49.208;12.080;2022-08-05T14:36:59;4.15;;;1.45;;
39078;SDS011;24829;49.208;12.080;2022-08-05T14:39:25;4.13;;;1.23;;
39078;SDS011;24829;49.208;12.080;2022-08-05T14:41:51;6.45;;;1.17;;
39078;SDS011;24829;49.208;12.080;2022-08-05T14:44:16;2.38;;;1.35;;
39078;SDS011;24829;49.208;12.080;2022-08-05T14:46:42;2.90;;;1.10;;
39078;SDS011;24829;49.208;12.080;2022-08-05T14:49:07;2.33;;;1.10;;
39078;SDS011;24829;49.208;12.080;2022-08-05T14:51:36;4.05;;;1.13;;
39078;SDS011;24829;49.208;12.080;2022-08-05T14:54:03;2.20;;;1.02;;
39078;SDS011;24829;49.208;12.080;2022-08-05T14:56:30;3.40;;;1.08;;
39078;SDS011;24829;49.208;12.080;2022-08-05T14:58:55;4.60;;;1.45;;
39078;SDS011;24829;49.208;12.080;2022-08-05T15:01:21;5.75;;;1.20;;
39078;SDS011;24829;49.208;12.080;2022-08-05T15:03:46;5.85;;;1.30;;
39078;SDS011;24829;49.208;12.080;2022-08-05T15:06:12;3.05;;;1.02;;
39078;SDS011;24829;49.208;12.080;2022-08-05T15:08:38;2.95;;;1.13;;
39078;SDS011;24829;49.208;12.080;2022-08-05T15:11:03;1.88;;;0.98;;
39078;SDS011;24829;49.208;12.080;2022-08-05T15:13:31;1.83;;;1.02;;
39078;SDS011;24829;49.208;12.080;2022-08-05T15:15:57;5.68;;;1.10;;
39078;SDS011;24829;49.208;12.080;2022-08-05T15:18:22;1.20;;;1.05;;